Time;durP1;ratioP1;P1;durP2;ratioP2;P2;SDS_P1;SDS_P2;PMS_P1;PMS_P2;Temp;Humidity;BMP_temperature;BMP_pressure;BME280_temperature;BME280_humidity;BME280_pressure;Samples;Min_cycle;Max_cycle;Signal;HPM_P1;HPM_P2
2022/08/31 00:04:09;;;;;;;1.38;0.20;;;16.90;99.90;;;;;;4996788;28;20056;-75
2022/08/31 00:06:35;;;;;;;0.30;0.10;;;16.90;99.90;;;;;;4996497;28;20062;-74
2022/08/31 00:09:03;;;;;;;0.80;0.15;;;16.80;99.90;;;;;;4995471;28;20052;-75
2022/08/31 00:11:30;;;;;;;1.30;0.13;;;16.90;99.90;;;;;;4995663;28;20466;-74
2022/08/31 00:13:59;;;;;;;0.20;0.20;;;16.80;99.90;;;;;;4996400;28;20108;-75
2022/08/31 00:16:27;;;;;;;0.90;0.13;;;16.80;99.90;;;;;;4996622;28;20136;-75
2022/08/31 00:18:53;;;;;;;0.17;0.17;;;16.70;99.90;;;;;;4996550;28;20121;-75
2022/08/31 00:21:21;;;;;;;0.20;0.20;;;16.70;99.90;;;;;;4996391;28;20561;-74
2022/08/31 00:23:47;;;;;;;0.32;0.20;;;16.70;99.90;;;;;;4995177;28;20062;-74
2022/08/31 00:26:14;;;;;;;0.45;0.20;;;16.70;99.90;;;;;;4995618;28;20100;-75
2022/08/31 00:28:40;;;;;;;0.30;0.17;;;16.70;99.90;;;;;;4995316;28;20053;-75
2022/08/31 00:31:05;;;;;;;0.40;0.20;;;16.60;99.90;;;;;;4996288;28;20034;-75
2022/08/31 00:33:31;;;;;;;0.93;0.10;;;16.60;99.90;;;;;;4995238;28;20046;-75
2022/08/31 00:35:57;;;;;;;1.40;0.20;;;16.70;99.90;;;;;;4996198;28;20113;-74
2022/08/31 00:38:22;;;;;;;0.98;0.20;;;16.60;99.90;;;;;;4979262;28;20088;-75
2022/08/31 00:40:48;;;;;;;0.35;0.10;;;16.60;99.90;;;;;;4996643;28;20042;-75
2022/08/31 00:43:32;;;;;;;1.65;0.10;;;16.60;99.90;;;;;;4979689;28;20053;-75
2022/08/31 00:45:58;;;;;;;1.00;0.13;;;16.60;99.90;;;;;;4995010;28;20086;-75
2022/08/31 00:48:24;;;;;;;0.75;0.17;;;16.50;99.90;;;;;;4994956;28;20089;-75
2022/08/31 00:50:49;;;;;;;0.55;0.30;;;16.60;99.90;;;;;;4996440;28;20057;-74
2022/08/31 00:53:15;;;;;;;0.10;0.10;;;16.30;99.90;;;;;;4995810;28;20042;-74
2022/08/31 00:55:41;;;;;;;0.82;0.10;;;16.40;99.90;;;;;;4994406;28;20062;-74
2022/08/31 00:58:10;;;;;;;0.17;0.10;;;16.30;99.90;;;;;;4995748;28;20058;-74
2022/08/31 01:00:37;;;;;;;0.40;0.20;;;16.30;99.90;;;;;;4995608;28;20077;-75
2022/08/31 01:03:05;;;;;;;0.43;0.17;;;16.30;99.90;;;;;;4995711;28;20440;-75
2022/08/31 01:05:32;;;;;;;0.10;0.10;;;16.40;99.90;;;;;;4995225;28;20053;-75
2022/08/31 01:07:59;;;;;;;0.60;0.20;;;16.20;99.90;;;;;;4994597;28;20375;-75
2022/08/31 01:10:30;;;;;;;0.10;0.10;;;16.20;99.90;;;;;;4996091;28;20042;-75
2022/08/31 01:12:57;;;;;;;0.40;0.10;;;16.10;99.90;;;;;;4978416;28;20133;-75
2022/08/31 01:15:24;;;;;;;0.98;0.20;;;16.10;99.90;;;;;;4994784;28;20093;-75
2022/08/31 01:17:53;;;;;;;1.38;0.10;;;16.10;99.90;;;;;;4995363;28;20050;-75
2022/08/31 01:20:53;;;;;;;0.30;0.10;;;16.10;99.90;;;;;;4995258;28;20046;-75
2022/08/31 01:23:32;;;;;;;0.38;0.20;;;16.10;99.90;;;;;;4996034;28;20054;-75
2022/08/31 01:25:58;;;;;;;0.98;0.20;;;16.00;99.90;;;;;;4995266;28;20057;-75
2022/08/31 01:28:24;;;;;;;0.88;0.10;;;16.00;99.90;;;;;;4993980;28;20054;-75
2022/08/31 01:31:02;;;;;;;0.17;0.10;;;16.10;99.90;;;;;;4995114;28;20042;-75
2022/08/31 01:33:28;;;;;;;0.28;0.10;;;15.90;99.90;;;;;;4995962;28;20133;-75
2022/08/31 01:35:56;;;;;;;0.40;0.20;;;15.90;99.90;;;;;;4995027;28;20050;-75
2022/08/31 01:38:22;;;;;;;0.50;0.10;;;15.80;99.90;;;;;;4994027;28;20116;-75
2022/08/31 01:40:54;;;;;;;1.27;0.13;;;15.80;99.90;;;;;;4994922;28;20043;-75
2022/08/31 01:43:21;;;;;;;0.10;0.10;;;15.70;99.90;;;;;;4995255;28;20042;-75
2022/08/31 01:45:47;;;;;;;0.80;0.10;;;15.80;99.90;;;;;;4994519;28;20478;-75
2022/08/31 01:48:12;;;;;;;0.20;0.10;;;15.70;99.90;;;;;;4994831;28;20049;-75
2022/08/31 01:50:38;;;;;;;0.88;0.20;;;15.70;99.90;;;;;;4993903;28;20048;-75
2022/08/31 01:53:04;;;;;;;0.30;0.20;;;15.70;99.90;;;;;;4994492;28;20134;-75
2022/08/31 01:55:30;;;;;;;0.65;0.20;;;15.80;99.90;;;;;;4993705;28;20492;-75
2022/08/31 01:57:57;;;;;;;0.40;0.20;;;15.70;99.90;;;;;;4993818;28;20058;-75
2022/08/31 02:00:23;;;;;;;0.95;0.30;;;15.60;99.90;;;;;;4994688;28;20098;-75
2022/08/31 02:02:49;;;;;;;1.40;0.22;;;15.60;99.90;;;;;;4994611;28;20101;-75
2022/08/31 02:05:15;;;;;;;0.20;0.20;;;15.60;99.90;;;;;;4994538;28;20046;-74
2022/08/31 02:07:41;;;;;;;0.77;0.20;;;15.70;99.90;;;;;;4994525;28;20486;-75
2022/08/31 02:10:07;;;;;;;0.60;0.20;;;15.60;99.90;;;;;;4994497;28;20054;-75
2022/08/31 02:12:33;;;;;;;0.40;0.20;;;15.60;99.90;;;;;;4993305;28;20101;-75
2022/08/31 02:14:59;;;;;;;0.85;0.43;;;15.70;99.90;;;;;;4993465;28;20047;-75
2022/08/31 02:17:25;;;;;;;1.00;0.20;;;15.50;99.90;;;;;;4992480;28;20053;-75
2022/08/31 02:19:50;;;;;;;0.75;0.20;;;15.50;99.90;;;;;;4993166;28;20046;-75
2022/08/31 02:22:16;;;;;;;0.43;0.20;;;15.50;99.90;;;;;;4977224;28;20038;-75
2022/08/31 02:24:42;;;;;;;0.20;0.20;;;15.40;99.90;;;;;;4993175;28;20475;-75
2022/08/31 02:27:08;;;;;;;0.50;0.20;;;15.40;99.90;;;;;;4992852;28;20050;-75
2022/08/31 02:29:34;;;;;;;0.43;0.20;;;15.40;99.90;;;;;;4994296;28;20106;-75
2022/08/31 02:32:00;;;;;;;0.20;0.20;;;15.40;99.90;;;;;;4994340;28;20038;-75
2022/08/31 02:34:26;;;;;;;0.55;0.20;;;15.30;99.90;;;;;;4976960;28;20105;-75
2022/08/31 02:36:52;;;;;;;0.40;0.20;;;15.30;99.90;;;;;;4994766;28;20053;-74
2022/08/31 02:39:18;;;;;;;0.70;0.20;;;15.30;99.90;;;;;;4994218;28;20046;-75
2022/08/31 02:41:44;;;;;;;0.77;0.20;;;15.30;99.90;;;;;;4994397;28;20470;-75
2022/08/31 02:44:09;;;;;;;0.70;0.20;;;15.20;99.90;;;;;;4994154;28;20057;-74
2022/08/31 02:46:35;;;;;;;0.70;0.20;;;15.20;99.90;;;;;;4992982;28;20081;-75
2022/08/31 02:49:01;;;;;;;1.70;0.20;;;15.20;99.90;;;;;;4994703;28;20545;-75
2022/08/31 02:51:27;;;;;;;0.45;0.10;;;15.20;99.90;;;;;;4993832;28;20054;-74
2022/08/31 02:53:53;;;;;;;0.82;0.20;;;15.30;99.90;;;;;;4994031;28;20092;-75
2022/08/31 02:56:19;;;;;;;1.55;0.10;;;15.20;99.90;;;;;;4994292;28;20065;-74
2022/08/31 02:58:45;;;;;;;0.43;0.20;;;15.20;99.90;;;;;;4993408;28;20121;-75
2022/08/31 03:01:10;;;;;;;0.38;0.20;;;15.20;99.90;;;;;;4992859;28;20058;-74
2022/08/31 03:03:37;;;;;;;0.47;0.20;;;15.20;99.90;;;;;;4994524;28;20137;-74
2022/08/31 03:06:03;;;;;;;1.20;0.20;;;15.20;99.90;;;;;;4993952;28;20051;-75
2022/08/31 03:08:29;;;;;;;0.47;0.10;;;15.10;99.90;;;;;;4992781;28;20050;-75
2022/08/31 03:10:55;;;;;;;0.20;0.13;;;15.20;99.90;;;;;;4993898;28;20049;-75
2022/08/31 03:13:21;;;;;;;0.20;0.20;;;15.10;99.90;;;;;;4994118;28;20046;-75
2022/08/31 03:15:47;;;;;;;0.28;0.10;;;15.20;99.90;;;;;;4992640;28;20129;-74
2022/08/31 03:18:12;;;;;;;0.20;0.20;;;15.20;99.90;;;;;;4993115;28;20038;-74
2022/08/31 03:20:38;;;;;;;0.50;0.20;;;15.10;99.90;;;;;;4994040;28;20042;-74
2022/08/31 03:23:04;;;;;;;0.38;0.20;;;15.10;99.90;;;;;;4993991;28;20085;-74
2022/08/31 03:25:30;;;;;;;0.93;0.20;;;15.20;99.90;;;;;;4992775;28;20046;-75
2022/08/31 03:27:55;;;;;;;0.20;0.17;;;15.10;99.90;;;;;;4977367;28;20378;-75
2022/08/31 03:30:22;;;;;;;0.20;0.20;;;15.10;99.90;;;;;;4996108;28;20046;-74
2022/08/31 03:32:49;;;;;;;0.10;0.10;;;15.00;99.90;;;;;;4997834;28;20052;-75
2022/08/31 03:35:16;;;;;;;0.20;0.20;;;15.00;99.90;;;;;;4997167;28;20089;-74
2022/08/31 03:37:43;;;;;;;0.40;0.20;;;15.10;99.90;;;;;;4997267;28;20047;-74
2022/08/31 03:40:09;;;;;;;0.20;0.20;;;15.00;99.90;;;;;;4997915;28;20092;-74
2022/08/31 03:42:35;;;;;;;0.28;0.20;;;15.00;99.90;;;;;;4995999;28;20394;-74
2022/08/31 03:45:02;;;;;;;0.73;0.20;;;14.90;99.90;;;;;;4996163;28;20050;-74
2022/08/31 03:47:27;;;;;;;0.32;0.20;;;15.10;99.90;;;;;;4997084;28;20054;-74
2022/08/31 03:49:53;;;;;;;0.30;0.20;;;15.00;99.90;;;;;;4996971;28;20088;-74
2022/08/31 03:52:20;;;;;;;1.17;0.20;;;15.00;99.90;;;;;;4996977;28;20046;-75
2022/08/31 03:54:46;;;;;;;1.42;0.30;;;15.00;99.90;;;;;;4996660;28;20073;-74
2022/08/31 03:57:13;;;;;;;0.25;0.20;;;14.90;99.90;;;;;;4997152;28;20054;-74
2022/08/31 03:59:38;;;;;;;1.50;0.30;;;15.00;99.90;;;;;;4996909;28;20050;-75
2022/08/31 04:02:04;;;;;;;0.73;0.30;;;14.90;99.90;;;;;;4996726;28;20069;-75
2022/08/31 04:04:30;;;;;;;0.50;0.20;;;14.90;99.90;;;;;;4996781;28;20050;-75
2022/08/31 04:06:56;;;;;;;0.88;0.20;;;14.90;99.90;;;;;;4996140;28;20096;-74
2022/08/31 04:09:22;;;;;;;1.05;0.30;;;14.90;99.90;;;;;;4995701;28;20046;-75
2022/08/31 04:11:48;;;;;;;0.30;0.20;;;15.00;99.90;;;;;;4996644;28;20079;-75
2022/08/31 04:14:14;;;;;;;1.08;0.20;;;14.80;99.90;;;;;;4996589;28;20054;-75
2022/08/31 04:16:42;;;;;;;0.28;0.20;;;14.90;99.90;;;;;;4996345;28;20052;-75
2022/08/31 04:19:10;;;;;;;0.85;0.20;;;14.90;99.90;;;;;;4995384;28;20505;-74
2022/08/31 04:21:36;;;;;;;0.63;0.20;;;14.90;99.90;;;;;;4996455;28;20112;-75
2022/08/31 04:24:02;;;;;;;0.30;0.20;;;14.90;99.90;;;;;;4995409;28;20470;-75
2022/08/31 04:26:34;;;;;;;2.80;0.30;;;14.80;99.90;;;;;;4996438;28;20050;-75
2022/08/31 04:29:00;;;;;;;0.57;0.20;;;14.80;99.90;;;;;;4995118;28;20054;-75
2022/08/31 04:31:27;;;;;;;0.50;0.20;;;14.80;99.90;;;;;;4995133;28;20045;-75
2022/08/31 04:33:55;;;;;;;0.50;0.20;;;14.70;99.90;;;;;;4995327;28;20079;-75
2022/08/31 04:36:23;;;;;;;0.68;0.20;;;14.80;99.90;;;;;;4996206;28;20458;-75
2022/08/31 04:38:52;;;;;;;0.57;0.57;;;14.80;99.90;;;;;;4996198;28;20050;-75
2022/08/31 04:41:19;;;;;;;0.32;0.25;;;15.00;99.90;;;;;;4995223;28;20042;-75
2022/08/31 04:43:49;;;;;;;0.50;0.30;;;14.80;99.90;;;;;;4996075;28;20046;-74
2022/08/31 04:46:15;;;;;;;0.63;0.30;;;14.70;99.90;;;;;;4995931;28;20505;-74
2022/08/31 04:48:41;;;;;;;0.80;0.25;;;14.70;99.90;;;;;;4995078;28;20338;-75
2022/08/31 04:51:16;;;;;;;1.20;0.20;;;14.70;99.90;;;;;;4994786;28;20054;-76
2022/08/31 04:53:43;;;;;;;2.10;0.20;;;14.80;99.90;;;;;;4995605;28;20042;-75
2022/08/31 04:56:16;;;;;;;0.68;0.22;;;14.60;99.90;;;;;;4994425;28;20062;-76
2022/08/31 04:58:45;;;;;;;0.32;0.20;;;14.60;99.90;;;;;;4995846;28;20522;-75
2022/08/31 05:01:13;;;;;;;1.33;0.28;;;14.70;99.90;;;;;;4995758;28;20046;-76
2022/08/31 05:03:39;;;;;;;1.40;0.30;;;14.70;99.90;;;;;;4996199;28;20084;-76
2022/08/31 05:06:10;;;;;;;0.85;0.28;;;14.50;99.90;;;;;;4995690;28;20042;-76
2022/08/31 05:08:36;;;;;;;0.28;0.20;;;14.60;99.90;;;;;;4994615;28;20057;-75
2022/08/31 05:11:14;;;;;;;0.30;0.30;;;14.60;99.90;;;;;;4995284;28;20042;-75
2022/08/31 05:13:40;;;;;;;0.82;0.30;;;14.60;99.90;;;;;;4995513;28;20050;-75
2022/08/31 05:16:08;;;;;;;0.32;0.20;;;14.60;99.90;;;;;;4995442;28;20052;-75
2022/08/31 05:18:34;;;;;;;0.35;0.30;;;14.70;99.90;;;;;;4995418;28;20050;-75
2022/08/31 05:21:11;;;;;;;1.42;0.30;;;14.70;99.90;;;;;;4995028;28;20038;-75
2022/08/31 05:23:38;;;;;;;0.68;0.40;;;14.60;99.90;;;;;;4995265;28;20561;-75
2022/08/31 05:26:03;;;;;;;1.13;0.20;;;14.60;99.90;;;;;;4995280;28;20043;-75
2022/08/31 05:28:32;;;;;;;1.85;0.40;;;14.50;99.90;;;;;;4977911;28;20054;-75
2022/08/31 05:30:57;;;;;;;0.43;0.38;;;14.70;99.90;;;;;;4995213;28;20085;-75
2022/08/31 05:33:23;;;;;;;2.20;0.40;;;14.50;99.90;;;;;;4995189;28;20049;-75
2022/08/31 05:35:49;;;;;;;0.30;0.30;;;14.60;99.90;;;;;;4995616;28;20049;-75
2022/08/31 05:38:14;;;;;;;0.98;0.40;;;14.60;99.90;;;;;;4995318;28;20431;-76
2022/08/31 05:40:40;;;;;;;0.73;0.40;;;14.60;99.90;;;;;;4993766;28;20042;-75
2022/08/31 05:43:06;;;;;;;0.30;0.30;;;14.60;99.90;;;;;;4977524;28;20505;-75
2022/08/31 05:45:31;;;;;;;0.38;0.30;;;14.60;99.90;;;;;;4994566;28;20097;-75
2022/08/31 05:47:57;;;;;;;1.25;0.40;;;14.60;99.90;;;;;;4993845;28;20045;-75
2022/08/31 05:50:23;;;;;;;0.55;0.30;;;14.60;99.90;;;;;;4995069;28;20046;-77
2022/08/31 05:52:49;;;;;;;14.30;0.82;;;14.60;99.90;;;;;;4993917;28;20475;-76
2022/08/31 05:55:15;;;;;;;0.65;0.40;;;14.60;99.90;;;;;;4994574;28;20482;-75
2022/08/31 05:57:40;;;;;;;1.23;0.40;;;14.60;99.90;;;;;;4993573;28;20050;-75
2022/08/31 06:00:09;;;;;;;0.60;0.40;;;14.70;99.90;;;;;;4994753;28;20082;-76
2022/08/31 06:02:35;;;;;;;0.85;0.30;;;14.80;99.90;;;;;;4994748;28;20088;-77
2022/08/31 06:05:01;;;;;;;0.30;0.30;;;14.80;99.90;;;;;;4994784;28;20181;-77
2022/08/31 06:07:27;;;;;;;0.90;0.30;;;14.90;99.90;;;;;;4994744;28;20101;-77
2022/08/31 06:09:53;;;;;;;0.30;0.22;;;14.80;99.90;;;;;;4993721;28;20057;-76
2022/08/31 06:12:24;;;;;;;0.45;0.30;;;14.80;99.90;;;;;;4994726;28;20054;-76
2022/08/31 06:14:49;;;;;;;0.95;0.40;;;14.90;99.90;;;;;;4996050;28;20050;-76
2022/08/31 06:17:16;;;;;;;1.50;1.00;;;15.00;99.90;;;;;;5000587;28;20050;-75
2022/08/31 06:19:42;;;;;;;0.60;0.50;;;14.90;99.90;;;;;;4994704;28;20082;-76
2022/08/31 06:22:08;;;;;;;2.58;0.40;;;15.00;99.90;;;;;;4994480;28;20049;-78
2022/08/31 06:24:33;;;;;;;0.85;0.30;;;15.00;99.90;;;;;;4994976;28;20053;-79
2022/08/31 06:27:00;;;;;;;0.40;0.28;;;15.30;99.90;;;;;;4994514;28;20058;-79
2022/08/31 06:29:28;;;;;;;0.50;0.30;;;15.50;99.90;;;;;;4977898;28;20466;-80
2022/08/31 06:31:54;;;;;;;0.90;0.40;;;15.10;99.90;;;;;;4978148;28;20053;-78
2022/08/31 06:34:20;;;;;;;1.00;0.30;;;15.20;99.90;;;;;;4993283;28;20058;-78
2022/08/31 06:36:47;;;;;;;0.50;0.30;;;15.30;99.90;;;;;;4994478;28;20050;-78
2022/08/31 06:39:13;;;;;;;0.40;0.30;;;15.40;99.90;;;;;;4993705;28;20057;-78
2022/08/31 06:41:39;;;;;;;0.90;0.30;;;15.40;99.90;;;;;;4993913;28;20549;-77
2022/08/31 06:44:09;;;;;;;1.75;0.50;;;15.40;99.90;;;;;;4993155;28;20394;-79
2022/08/31 06:46:37;;;;;;;0.40;0.40;;;15.40;99.90;;;;;;4994904;28;20085;-78
2022/08/31 06:49:04;;;;;;;1.60;0.30;;;15.50;99.90;;;;;;4994397;28;20050;-77
2022/08/31 06:51:35;;;;;;;0.82;0.30;;;15.50;99.90;;;;;;4992750;28;20051;-77
2022/08/31 06:54:02;;;;;;;1.38;0.30;;;15.60;99.90;;;;;;4993434;28;20046;-77
2022/08/31 06:56:28;;;;;;;1.70;0.40;;;15.60;99.90;;;;;;4994205;28;20140;-78
2022/08/31 06:58:53;;;;;;;1.38;0.30;;;15.70;99.90;;;;;;4994166;28;20124;-76
2022/08/31 07:01:23;;;;;;;0.75;0.28;;;15.70;99.90;;;;;;4994078;28;20048;-76
2022/08/31 07:03:49;;;;;;;2.85;1.25;;;15.70;99.90;;;;;;4995249;28;20054;-76
2022/08/31 07:06:20;;;;;;;1.48;0.30;;;16.10;99.90;;;;;;4996847;28;20046;-76
2022/08/31 07:08:50;;;;;;;0.85;0.20;;;16.00;99.90;;;;;;4997679;28;20629;-75
2022/08/31 07:11:28;;;;;;;0.40;0.28;;;15.90;99.90;;;;;;4997230;28;20050;-74
2022/08/31 07:13:55;;;;;;;1.13;0.28;;;16.10;99.90;;;;;;4997880;28;20121;-74
2022/08/31 07:16:22;;;;;;;1.00;0.25;;;15.90;99.90;;;;;;4998283;28;20042;-74
2022/08/31 07:18:49;;;;;;;0.57;0.30;;;16.10;99.90;;;;;;4997436;28;20422;-74
2022/08/31 07:21:19;;;;;;;1.67;0.40;;;16.10;99.90;;;;;;4998184;28;20043;-74
2022/08/31 07:23:46;;;;;;;0.45;0.30;;;16.10;99.90;;;;;;4997560;28;20052;-74
2022/08/31 07:26:15;;;;;;;1.77;0.20;;;16.10;99.90;;;;;;4996315;28;20117;-74
2022/08/31 07:28:44;;;;;;;1.17;0.20;;;16.20;99.90;;;;;;4997671;28;20093;-73
2022/08/31 07:31:14;;;;;;;0.95;0.20;;;16.30;99.90;;;;;;4997500;28;20054;-73
2022/08/31 07:33:40;;;;;;;2.63;0.30;;;16.40;99.90;;;;;;4980224;28;20046;-73
2022/08/31 07:36:14;;;;;;;0.80;0.28;;;16.30;99.90;;;;;;4998226;28;20085;-73
2022/08/31 07:44:11;;;;;;;1.20;0.32;;;16.40;99.90;;;;;;4997358;28;20058;-75
2022/08/31 07:46:37;;;;;;;0.93;0.20;;;16.70;99.90;;;;;;4996896;28;20049;-75
2022/08/31 07:49:11;;;;;;;0.55;0.20;;;16.70;99.90;;;;;;4996783;28;20073;-75
2022/08/31 07:51:49;;;;;;;0.95;0.30;;;16.70;99.90;;;;;;4980287;28;20093;-75
2022/08/31 07:54:17;;;;;;;0.93;0.30;;;16.80;99.90;;;;;;4996733;28;20120;-76
2022/08/31 07:56:45;;;;;;;0.65;0.20;;;17.00;99.90;;;;;;4997068;28;20058;-76
2022/08/31 07:59:13;;;;;;;0.52;0.20;;;16.90;99.90;;;;;;4996739;28;20073;-76
2022/08/31 08:01:42;;;;;;;1.25;0.25;;;17.00;99.90;;;;;;4980200;28;20046;-75
2022/08/31 08:04:11;;;;;;;1.35;0.30;;;17.00;99.90;;;;;;4996121;28;20105;-76
2022/08/31 08:06:36;;;;;;;0.60;0.20;;;17.20;99.90;;;;;;4996194;28;20442;-74
2022/08/31 08:09:05;;;;;;;1.45;0.20;;;17.20;99.90;;;;;;4979151;28;20082;-75
2022/08/31 08:11:35;;;;;;;0.85;0.28;;;17.10;99.90;;;;;;4995966;28;20410;-75
2022/08/31 08:14:03;;;;;;;0.38;0.22;;;17.30;99.90;;;;;;4995937;28;20112;-75
2022/08/31 08:16:29;;;;;;;0.50;0.20;;;17.40;99.90;;;;;;4995568;28;20046;-75
2022/08/31 08:18:55;;;;;;;0.30;0.20;;;17.40;99.90;;;;;;4997716;28;20140;-75
2022/08/31 08:21:21;;;;;;;1.40;0.25;;;17.40;99.90;;;;;;4979336;28;20042;-75
2022/08/31 08:23:46;;;;;;;0.93;0.20;;;17.50;99.90;;;;;;4995428;28;20054;-75
2022/08/31 08:26:12;;;;;;;1.17;0.30;;;17.50;99.90;;;;;;4995574;28;20479;-76
2022/08/31 08:28:38;;;;;;;0.30;0.20;;;;;;;;;;4997061;28;20137;-75
2022/08/31 08:31:09;;;;;;;0.20;0.20;;;17.50;99.90;;;;;;4996491;28;20051;-75
2022/08/31 08:33:35;;;;;;;0.35;0.20;;;17.60;99.90;;;;;;4995333;28;20046;-75
2022/08/31 08:36:06;;;;;;;0.70;0.30;;;17.70;99.90;;;;;;4996434;28;20053;-75
2022/08/31 08:38:33;;;;;;;2.53;0.30;;;17.70;99.90;;;;;;4996101;28;20054;-75
2022/08/31 08:41:03;;;;;;;0.10;0.10;;;17.80;99.90;;;;;;4996018;28;20082;-74
2022/08/31 08:43:35;;;;;;;0.68;0.20;;;17.80;99.90;;;;;;4996985;28;20068;-74
2022/08/31 08:46:03;;;;;;;0.47;0.30;;;17.90;99.90;;;;;;4995126;28;20046;-75
2022/08/31 08:48:33;;;;;;;0.40;0.20;;;18.00;99.90;;;;;;4996037;28;20406;-74
2022/08/31 08:51:03;;;;;;;0.55;0.20;;;18.10;99.90;;;;;;4996008;28;20046;-74
2022/08/31 08:53:30;;;;;;;1.20;0.30;;;18.10;99.90;;;;;;4994953;28;20050;-74
2022/08/31 08:55:56;;;;;;;1.02;0.20;;;18.10;99.90;;;;;;4995602;28;20081;-75
2022/08/31 08:58:24;;;;;;;0.60;0.20;;;18.20;99.90;;;;;;4995239;28;20137;-75
2022/08/31 09:00:52;;;;;;;0.85;0.20;;;18.10;99.90;;;;;;4996151;28;20046;-75
2022/08/31 09:04:10;;;;;;;1.13;0.22;;;18.20;99.90;;;;;;4996110;28;20075;-75
2022/08/31 09:06:45;;;;;;;1.95;0.20;;;18.20;99.90;;;;;;4979970;28;20415;-75
2022/08/31 09:09:39;;;;;;;1.77;0.30;;;18.30;99.90;;;;;;4994906;28;20125;-77
2022/08/31 09:12:25;;;;;;;0.80;0.20;;;18.40;99.90;;;;;;4996056;28;20522;-75
2022/08/31 09:15:34;;;;;;;1.20;0.20;;;18.40;99.90;;;;;;4995677;28;20061;-75
2022/08/31 09:18:14;;;;;;;1.75;0.30;;;18.50;99.90;;;;;;4994374;28;20129;-75
2022/08/31 09:20:40;;;;;;;1.20;0.30;;;18.50;99.90;;;;;;4995589;28;20046;-75
2022/08/31 09:23:06;;;;;;;0.20;0.17;;;18.50;99.90;;;;;;4994871;28;20360;-76
2022/08/31 09:25:52;;;;;;;0.73;0.25;;;18.50;99.90;;;;;;4994676;28;20372;-76
2022/08/31 09:28:46;;;;;;;0.82;0.20;;;18.60;99.90;;;;;;4994858;28;20124;-75
2022/08/31 09:31:38;;;;;;;1.52;0.30;;;18.80;99.90;;;;;;4994874;28;20466;-74
2022/08/31 09:34:30;;;;;;;0.35;0.20;;;18.60;99.90;;;;;;4995611;28;20046;-74
2022/08/31 09:37:13;;;;;;;0.30;0.20;;;18.80;99.90;;;;;;4996861;28;20038;-74
2022/08/31 09:39:39;;;;;;;1.15;0.30;;;18.90;99.90;;;;;;4995847;28;20046;-74
2022/08/31 09:42:22;;;;;;;0.30;0.20;;;18.60;99.90;;;;;;4994356;28;20045;-76
2022/08/31 09:44:49;;;;;;;0.38;0.30;;;18.60;99.90;;;;;;4996184;28;20101;-75
2022/08/31 09:47:54;;;;;;;2.13;0.30;;;18.70;99.90;;;;;;4994211;28;20050;-74
2022/08/31 09:50:34;;;;;;;0.93;0.30;;;18.80;99.90;;;;;;4995021;28;20046;-76
2022/08/31 09:56:21;;;;;;;0.30;0.20;;;18.90;99.90;;;;;;5002851;28;20488;-75
2022/08/31 09:59:00;;;;;;;0.57;0.20;;;18.90;99.90;;;;;;4993803;28;20089;-75
2022/08/31 10:01:25;;;;;;;1.02;0.20;;;19.00;99.90;;;;;;4995629;28;20128;-75
2022/08/31 10:04:11;;;;;;;0.30;0.20;;;18.90;99.90;;;;;;4993842;28;20050;-75
2022/08/31 10:06:49;;;;;;;2.47;0.20;;;19.00;99.90;;;;;;4994760;28;20090;-75
2022/08/31 10:09:28;;;;;;;2.05;0.20;;;19.10;99.90;;;;;;4994786;28;20130;-75
2022/08/31 10:11:58;;;;;;;0.98;0.20;;;19.10;99.90;;;;;;4995303;28;20042;-75
2022/08/31 10:14:49;;;;;;;0.52;0.20;;;19.30;99.90;;;;;;4994352;28;20498;-74
2022/08/31 10:17:25;;;;;;;0.93;0.17;;;19.20;99.90;;;;;;4993979;28;20478;-77
2022/08/31 10:20:06;;;;;;;2.35;0.30;;;19.40;99.90;;;;;;4994618;28;20379;-75
2022/08/31 10:22:45;;;;;;;3.10;1.05;;;19.40;99.90;;;;;;4994115;28;20121;-74
2022/08/31 10:25:20;;;;;;;0.43;0.28;;;19.40;99.90;;;;;;4994155;28;20069;-75
2022/08/31 10:27:59;;;;;;;0.65;0.20;;;19.50;99.90;;;;;;4994471;28;20471;-75
2022/08/31 10:30:37;;;;;;;0.88;0.30;;;19.50;99.90;;;;;;4994642;28;20057;-76
2022/08/31 10:35:01;;;;;;;2.58;0.43;;;19.70;99.90;;;;;;4994963;28;20051;-75
2022/08/31 10:36:16;;;;;;;1.52;0.20;;;;;;;;;;4993007;28;20517;-74
2022/08/31 10:38:47;;;;;;;1.70;0.20;;;19.60;97.80;;;;;;4992638;28;20056;-74
2022/08/31 10:41:15;;;;;;;0.40;0.20;;;19.70;99.90;;;;;;4995072;28;20410;-74
2022/08/31 10:44:16;;;;;;;0.85;0.20;;;19.80;99.90;;;;;;4994267;28;20454;-74
2022/08/31 10:46:43;;;;;;;3.50;0.50;;;19.60;99.20;;;;;;4993453;28;20050;-74
2022/08/31 10:49:10;;;;;;;0.28;0.20;;;19.80;98.30;;;;;;4994167;28;20050;-74
2022/08/31 10:51:45;;;;;;;0.30;0.20;;;20.00;97.80;;;;;;4994485;28;20050;-75
2022/08/31 10:54:48;;;;;;;0.45;0.20;;;20.00;97.00;;;;;;4994827;28;20387;-75
2022/08/31 10:57:20;;;;;;;1.35;0.20;;;20.10;96.90;;;;;;4975839;28;20093;-74
2022/08/31 11:00:40;;;;;;;0.80;0.22;;;20.00;96.50;;;;;;4993602;28;20053;-73
2022/08/31 11:03:23;;;;;;;3.60;0.25;;;20.00;95.90;;;;;;4993743;28;20510;-75
2022/08/31 11:06:00;;;;;;;0.55;0.20;;;20.10;95.80;;;;;;4994025;28;20054;-74
2022/08/31 11:08:40;;;;;;;0.90;0.10;;;20.10;95.30;;;;;;4993143;28;20054;-74
2022/08/31 11:11:10;;;;;;;0.30;0.20;;;20.20;95.40;;;;;;4993278;28;20050;-74
2022/08/31 11:13:48;;;;;;;0.63;0.20;;;20.20;95.30;;;;;;4993416;28;20085;-74
2022/08/31 11:16:45;;;;;;;0.73;0.20;;;20.30;95.00;;;;;;4976834;28;20050;-74
2022/08/31 11:19:50;;;;;;;1.83;0.30;;;20.30;94.10;;;;;;4994061;28;20078;-76
2022/08/31 11:22:52;;;;;;;0.95;0.10;;;20.40;94.00;;;;;;4993601;28;20517;-74
2022/08/31 11:25:46;;;;;;;0.90;0.20;;;20.40;94.10;;;;;;4994159;28;20050;-75
2022/08/31 11:28:32;;;;;;;0.20;0.10;;;20.40;93.60;;;;;;4992251;28;20055;-75
2022/08/31 11:31:05;;;;;;;0.57;0.20;;;20.50;92.30;;;;;;4993083;28;20494;-74
2022/08/31 11:33:31;;;;;;;0.98;0.10;;;20.50;92.60;;;;;;4976810;28;20050;-73
2022/08/31 11:36:07;;;;;;;1.17;0.20;;;20.50;92.60;;;;;;4993006;28;20054;-75
2022/08/31 11:38:53;;;;;;;0.10;0.10;;;20.50;92.20;;;;;;4992270;28;20055;-74
2022/08/31 11:41:45;;;;;;;0.28;0.10;;;20.60;91.80;;;;;;4975578;28;20050;-74
2022/08/31 11:44:30;;;;;;;1.95;0.30;;;20.60;91.60;;;;;;4993525;28;20050;-75
2022/08/31 11:47:13;;;;;;;0.10;0.10;;;20.80;93.60;;;;;;4993252;28;20438;-74
2022/08/31 11:49:48;;;;;;;2.03;0.10;;;20.60;90.60;;;;;;4993888;28;20105;-74
2022/08/31 11:52:23;;;;;;;0.85;0.20;;;20.60;91.10;;;;;;4996655;28;20053;-73
2022/08/31 11:54:49;;;;;;;1.13;0.20;;;20.70;91.60;;;;;;4995158;28;20109;-74
2022/08/31 11:57:23;;;;;;;1.45;0.20;;;20.70;91.70;;;;;;4994988;28;20050;-74
2022/08/31 11:59:54;;;;;;;0.15;0.15;;;20.70;90.80;;;;;;4996718;28;20066;-75
2022/08/31 12:02:21;;;;;;;0.47;0.20;;;20.80;90.40;;;;;;4995568;28;20047;-74
2022/08/31 12:04:59;;;;;;;0.50;0.20;;;20.80;90.60;;;;;;4996671;28;20086;-74
2022/08/31 12:07:41;;;;;;;0.32;0.20;;;20.90;90.70;;;;;;4995180;28;20050;-74
2022/08/31 12:10:28;;;;;;;0.20;0.15;;;20.90;90.80;;;;;;4996773;28;20058;-75
2022/08/31 12:13:24;;;;;;;0.50;0.30;;;21.00;90.70;;;;;;4995573;28;20054;-76
2022/08/31 12:16:40;;;;;;;0.30;0.20;;;21.00;90.40;;;;;;4996081;28;20046;-76
2022/08/31 12:26:04;;;;;;;0.38;0.20;;;21.10;88.90;;;;;;4995449;28;20467;-74
2022/08/31 12:29:01;;;;;;;0.40;0.20;;;21.30;90.80;;;;;;4995965;28;20046;-75
2022/08/31 12:31:28;;;;;;;0.43;0.20;;;21.10;90.40;;;;;;4995371;28;20062;-75
2022/08/31 12:34:18;;;;;;;3.30;0.30;;;21.20;90.10;;;;;;4996347;28;20052;-79
2022/08/31 12:36:44;;;;;;;0.38;0.20;;;21.30;90.60;;;;;;4979523;28;20052;-76
2022/08/31 12:39:20;;;;;;;0.63;0.20;;;21.30;90.40;;;;;;4996914;28;20039;-76
2022/08/31 12:41:50;;;;;;;0.20;0.20;;;21.30;90.30;;;;;;4996255;28;20042;-76
2022/08/31 12:44:27;;;;;;;0.28;0.15;;;21.30;90.10;;;;;;4996267;28;20446;-78
2022/08/31 12:47:19;;;;;;;0.30;0.20;;;21.40;89.50;;;;;;4996275;28;20048;-76
2022/08/31 12:50:06;;;;;;;0.30;0.30;;;21.30;88.80;;;;;;4996418;28;20050;-76
2022/08/31 12:52:51;;;;;;;0.63;0.20;;;21.40;88.90;;;;;;4996673;28;20375;-76
2022/08/31 12:55:36;;;;;;;0.57;0.20;;;21.40;89.10;;;;;;4996161;28;20446;-76
2022/08/31 12:58:07;;;;;;;1.25;0.20;;;21.40;89.90;;;;;;4978830;28;20046;-76
2022/08/31 13:00:38;;;;;;;0.57;0.20;;;21.50;88.90;;;;;;4996118;28;20536;-76
2022/08/31 13:03:23;;;;;;;1.25;0.10;;;21.60;89.00;;;;;;4996066;28;20093;-76
2022/08/31 13:06:07;;;;;;;0.43;0.17;;;21.60;86.80;;;;;;4995591;28;20080;-78
2022/08/31 13:08:43;;;;;;;1.55;0.20;;;21.60;86.60;;;;;;4996365;28;20046;-77
2022/08/31 13:11:21;;;;;;;0.98;0.20;;;21.60;86.60;;;;;;4995752;28;20053;-77
2022/08/31 13:13:46;;;;;;;1.13;0.17;;;21.70;86.20;;;;;;4996350;28;20050;-77
2022/08/31 13:16:12;;;;;;;0.95;0.20;;;21.70;84.90;;;;;;4996175;28;20046;-77
2022/08/31 13:18:38;;;;;;;1.33;0.20;;;21.70;84.90;;;;;;4962640;28;20086;-77
2022/08/31 13:21:04;;;;;;;0.70;0.20;;;21.70;85.80;;;;;;4995408;28;20042;-75
2022/08/31 13:23:43;;;;;;;2.47;0.20;;;21.80;86.10;;;;;;4994307;28;20479;-76
2022/08/31 13:26:21;;;;;;;0.30;0.20;;;21.80;85.40;;;;;;4978582;28;20065;-76
2022/08/31 13:28:59;;;;;;;0.20;0.20;;;21.80;85.50;;;;;;4994340;28;20089;-76